sensor_id;sensor_type;location;lat;lon;timestamp;P1;durP1;ratioP1;P2;durP2;ratioP2
23632;SDS011;11993;48.748;9.166;2022-12-31T00:00:38;0.88;;;0.75;;
23632;SDS011;11993;48.748;9.166;2022-12-31T00:03:04;1.90;;;0.80;;
23632;SDS011;11993;48.748;9.166;2022-12-31T00:05:31;1.38;;;0.93;;
23632;SDS011;11993;48.748;9.166;2022-12-31T00:07:58;2.00;;;0.70;;
23632;SDS011;11993;48.748;9.166;2022-12-31T00:10:24;1.10;;;0.80;;
23632;SDS011;11993;48.748;9.166;2022-12-31T00:12:49;1.52;;;0.90;;
23632;SDS011;11993;48.748;9.166;2022-12-31T00:15:15;1.20;;;0.80;;
23632;SDS011;11993;48.748;9.166;2022-12-31T00:17:41;1.27;;;0.82;;
23632;SDS011;11993;48.748;9.166;2022-12-31T00:20:06;1.10;;;0.75;;
23632;SDS011;11993;48.748;9.166;2022-12-31T00:22:32;3.63;;;0.98;;
23632;SDS011;11993;48.748;9.166;2022-12-31T00:24:58;0.70;;;0.70;;
23632;SDS011;11993;48.748;9.166;2022-12-31T00:27:24;1.63;;;1.15;;
23632;SDS011;11993;48.748;9.166;2022-12-31T00:29:49;1.17;;;0.95;;
23632;SDS011;11993;48.748;9.166;2022-12-31T00:32:15;1.13;;;0.90;;
23632;SDS011;11993;48.748;9.166;2022-12-31T00:34:40;1.52;;;1.00;;
23632;SDS011;11993;48.748;9.166;2022-12-31T00:37:06;1.30;;;0.68;;
23632;SDS011;11993;48.748;9.166;2022-12-31T00:39:31;0.63;;;0.60;;
23632;SDS011;11993;48.748;9.166;2022-12-31T00:41:57;1.10;;;0.85;;
23632;SDS011;11993;48.748;9.166;2022-12-31T00:44:22;1.25;;;0.80;;
23632;SDS011;11993;48.748;9.166;2022-12-31T00:46:48;2.60;;;0.60;;
23632;SDS011;11993;48.748;9.166;2022-12-31T00:49:13;2.47;;;1.00;;
23632;SDS011;11993;48.748;9.166;2022-12-31T00:51:39;1.70;;;0.70;;
23632;SDS011;11993;48.748;9.166;2022-12-31T00:54:05;0.73;;;0.68;;
23632;SDS011;11993;48.748;9.166;2022-12-31T00:56:30;0.70;;;0.60;;
23632;SDS011;11993;48.748;9.166;2022-12-31T00:58:57;1.90;;;0.70;;
23632;SDS011;11993;48.748;9.166;2022-12-31T01:01:25;2.17;;;0.80;;
23632;SDS011;11993;48.748;9.166;2022-12-31T01:03:53;1.63;;;0.90;;
23632;SDS011;11993;48.748;9.166;2022-12-31T01:06:21;1.20;;;0.82;;
23632;SDS011;11993;48.748;9.166;2022-12-31T01:08:47;0.85;;;0.73;;
23632;SDS011;11993;48.748;9.166;2022-12-31T01:11:14;1.10;;;0.80;;
23632;SDS011;11993;48.748;9.166;2022-12-31T01:13:43;0.70;;;0.70;;
23632;SDS011;11993;48.748;9.166;2022-12-31T01:16:18;0.85;;;0.70;;
23632;SDS011;11993;48.748;9.166;2022-12-31T01:18:46;0.90;;;0.80;;
23632;SDS011;11993;48.748;9.166;2022-12-31T01:21:12;3.70;;;0.80;;
23632;SDS011;11993;48.748;9.166;2022-12-31T01:23:39;1.58;;;0.75;;
23632;SDS011;11993;48.748;9.166;2022-12-31T01:26:05;0.75;;;0.70;;
23632;SDS011;11993;48.748;9.166;2022-12-31T01:28:32;3.60;;;0.70;;
23632;SDS011;11993;48.748;9.166;2022-12-31T01:31:01;3.03;;;0.73;;
23632;SDS011;11993;48.748;9.166;2022-12-31T01:33:31;2.72;;;1.27;;
23632;SDS011;11993;48.748;9.166;2022-12-31T01:36:04;2.80;;;0.90;;
23632;SDS011;11993;48.748;9.166;2022-12-31T01:38:32;1.98;;;0.68;;
23632;SDS011;11993;48.748;9.166;2022-12-31T01:40:58;1.55;;;0.77;;
23632;SDS011;11993;48.748;9.166;2022-12-31T01:43:40;0.95;;;0.75;;
23632;SDS011;11993;48.748;9.166;2022-12-31T01:49:07;0.77;;;0.70;;
23632;SDS011;11993;48.748;9.166;2022-12-31T01:51:44;3.78;;;0.82;;
23632;SDS011;11993;48.748;9.166;2022-12-31T01:54:14;1.90;;;0.80;;
23632;SDS011;11993;48.748;9.166;2022-12-31T01:56:42;1.25;;;0.60;;
23632;SDS011;11993;48.748;9.166;2022-12-31T01:59:10;2.22;;;0.70;;
23632;SDS011;11993;48.748;9.166;2022-12-31T02:01:38;2.45;;;1.08;;
23632;SDS011;11993;48.748;9.166;2022-12-31T02:04:11;1.63;;;0.85;;
23632;SDS011;11993;48.748;9.166;2022-12-31T02:06:46;1.10;;;0.75;;
23632;SDS011;11993;48.748;9.166;2022-12-31T02:09:28;1.77;;;0.98;;
23632;SDS011;11993;48.748;9.166;2022-12-31T02:11:55;0.70;;;0.70;;
23632;SDS011;11993;48.748;9.166;2022-12-31T02:14:22;0.50;;;0.50;;
23632;SDS011;11993;48.748;9.166;2022-12-31T02:31:32;1.50;;;0.80;;
23632;SDS011;11993;48.748;9.166;2022-12-31T02:36:36;5.72;;;0.95;;
23632;SDS011;11993;48.748;9.166;2022-12-31T02:39:04;0.77;;;0.70;;
23632;SDS011;11993;48.748;9.166;2022-12-31T02:41:31;2.15;;;0.70;;
23632;SDS011;11993;48.748;9.166;2022-12-31T02:44:32;0.90;;;0.80;;
23632;SDS011;11993;48.748;9.166;2022-12-31T02:49:46;3.53;;;0.80;;
23632;SDS011;11993;48.748;9.166;2022-12-31T03:01:07;3.58;;;1.00;;
23632;SDS011;11993;48.748;9.166;2022-12-31T03:03:51;2.13;;;1.00;;
23632;SDS011;11993;48.748;9.166;2022-12-31T03:06:36;1.17;;;0.70;;
23632;SDS011;11993;48.748;9.166;2022-12-31T03:09:02;0.88;;;0.77;;
23632;SDS011;11993;48.748;9.166;2022-12-31T03:11:37;1.52;;;0.80;;
23632;SDS011;11993;48.748;9.166;2022-12-31T03:14:21;1.25;;;0.77;;
23632;SDS011;11993;48.748;9.166;2022-12-31T03:16:47;1.75;;;0.63;;
23632;SDS011;11993;48.748;9.166;2022-12-31T03:19:13;1.75;;;0.60;;
23632;SDS011;11993;48.748;9.166;2022-12-31T03:21:57;1.95;;;0.90;;
23632;SDS011;11993;48.748;9.166;2022-12-31T03:24:41;2.13;;;0.93;;
23632;SDS011;11993;48.748;9.166;2022-12-31T03:27:25;2.22;;;0.80;;
23632;SDS011;11993;48.748;9.166;2022-12-31T03:29:51;1.42;;;0.80;;
23632;SDS011;11993;48.748;9.166;2022-12-31T03:32:16;1.00;;;0.70;;
23632;SDS011;11993;48.748;9.166;2022-12-31T03:34:42;3.35;;;0.90;;
23632;SDS011;11993;48.748;9.166;2022-12-31T03:37:07;1.63;;;0.80;;
23632;SDS011;11993;48.748;9.166;2022-12-31T03:39:33;1.02;;;0.88;;
23632;SDS011;11993;48.748;9.166;2022-12-31T03:41:58;3.03;;;0.60;;
23632;SDS011;11993;48.748;9.166;2022-12-31T03:44:24;1.48;;;0.60;;
23632;SDS011;11993;48.748;9.166;2022-12-31T03:46:49;1.02;;;0.80;;
23632;SDS011;11993;48.748;9.166;2022-12-31T03:49:15;3.30;;;0.95;;
23632;SDS011;11993;48.748;9.166;2022-12-31T03:51:40;3.13;;;0.68;;
23632;SDS011;11993;48.748;9.166;2022-12-31T03:54:06;1.75;;;0.65;;
23632;SDS011;11993;48.748;9.166;2022-12-31T03:56:31;1.10;;;0.63;;
23632;SDS011;11993;48.748;9.166;2022-12-31T03:58:57;1.30;;;0.52;;
23632;SDS011;11993;48.748;9.166;2022-12-31T04:01:22;3.05;;;0.60;;
23632;SDS011;11993;48.748;9.166;2022-12-31T04:03:49;1.75;;;0.75;;
23632;SDS011;11993;48.748;9.166;2022-12-31T04:06:14;0.98;;;0.60;;
23632;SDS011;11993;48.748;9.166;2022-12-31T04:08:40;1.33;;;0.68;;
23632;SDS011;11993;48.748;9.166;2022-12-31T04:11:05;2.83;;;0.57;;
23632;SDS011;11993;48.748;9.166;2022-12-31T04:13:31;2.70;;;0.70;;
23632;SDS011;11993;48.748;9.166;2022-12-31T04:15:57;1.38;;;0.70;;
23632;SDS011;11993;48.748;9.166;2022-12-31T04:18:22;3.25;;;0.70;;
23632;SDS011;11993;48.748;9.166;2022-12-31T04:20:48;0.98;;;0.60;;
23632;SDS011;11993;48.748;9.166;2022-12-31T04:23:13;0.93;;;0.73;;
23632;SDS011;11993;48.748;9.166;2022-12-31T04:25:39;3.92;;;0.93;;
23632;SDS011;11993;48.748;9.166;2022-12-31T04:28:04;0.93;;;0.65;;
23632;SDS011;11993;48.748;9.166;2022-12-31T04:30:29;4.82;;;0.85;;
23632;SDS011;11993;48.748;9.166;2022-12-31T04:32:55;1.08;;;0.60;;
23632;SDS011;11993;48.748;9.166;2022-12-31T04:35:20;1.20;;;0.57;;
23632;SDS011;11993;48.748;9.166;2022-12-31T04:37:46;2.40;;;0.50;;
23632;SDS011;11993;48.748;9.166;2022-12-31T04:40:11;2.33;;;0.88;;
23632;SDS011;11993;48.748;9.166;2022-12-31T04:42:37;2.67;;;0.80;;
23632;SDS011;11993;48.748;9.166;2022-12-31T04:45:03;1.40;;;0.68;;
23632;SDS011;11993;48.748;9.166;2022-12-31T04:47:29;3.80;;;0.60;;
23632;SDS011;11993;48.748;9.166;2022-12-31T04:49:54;1.15;;;0.70;;
23632;SDS011;11993;48.748;9.166;2022-12-31T04:52:20;1.75;;;0.68;;
23632;SDS011;11993;48.748;9.166;2022-12-31T04:54:46;1.65;;;0.60;;
23632;SDS011;11993;48.748;9.166;2022-12-31T04:57:11;2.00;;;0.60;;
23632;SDS011;11993;48.748;9.166;2022-12-31T04:59:37;0.93;;;0.50;;
23632;SDS011;11993;48.748;9.166;2022-12-31T05:02:02;0.60;;;0.52;;
23632;SDS011;11993;48.748;9.166;2022-12-31T05:04:28;0.55;;;0.50;;
23632;SDS011;11993;48.748;9.166;2022-12-31T05:06:53;1.27;;;0.70;;
23632;SDS011;11993;48.748;9.166;2022-12-31T05:09:19;1.17;;;0.70;;
23632;SDS011;11993;48.748;9.166;2022-12-31T05:11:45;0.40;;;0.40;;
23632;SDS011;11993;48.748;9.166;2022-12-31T05:14:11;3.97;;;0.70;;
23632;SDS011;11993;48.748;9.166;2022-12-31T05:16:36;1.00;;;0.70;;
23632;SDS011;11993;48.748;9.166;2022-12-31T05:19:02;0.50;;;0.50;;
23632;SDS011;11993;48.748;9.166;2022-12-31T05:21:30;0.50;;;0.50;;
23632;SDS011;11993;48.748;9.166;2022-12-31T05:23:55;4.40;;;0.60;;
23632;SDS011;11993;48.748;9.166;2022-12-31T05:26:21;0.60;;;0.60;;
23632;SDS011;11993;48.748;9.166;2022-12-31T05:28:46;2.38;;;0.68;;
23632;SDS011;11993;48.748;9.166;2022-12-31T05:31:12;2.90;;;0.80;;
23632;SDS011;11993;48.748;9.166;2022-12-31T05:33:37;1.05;;;0.60;;
23632;SDS011;11993;48.748;9.166;2022-12-31T05:36:03;1.10;;;0.60;;
23632;SDS011;11993;48.748;9.166;2022-12-31T05:38:29;0.93;;;0.70;;
23632;SDS011;11993;48.748;9.166;2022-12-31T05:41:02;0.90;;;0.73;;
23632;SDS011;11993;48.748;9.166;2022-12-31T05:43:29;1.20;;;0.55;;
23632;SDS011;11993;48.748;9.166;2022-12-31T05:45:55;1.52;;;0.52;;
23632;SDS011;11993;48.748;9.166;2022-12-31T05:48:23;0.75;;;0.73;;
23632;SDS011;11993;48.748;9.166;2022-12-31T05:50:49;1.13;;;0.73;;
23632;SDS011;11993;48.748;9.166;2022-12-31T05:53:15;1.05;;;0.80;;
23632;SDS011;11993;48.748;9.166;2022-12-31T05:55:40;0.85;;;0.75;;
23632;SDS011;11993;48.748;9.166;2022-12-31T05:58:06;1.33;;;0.70;;
23632;SDS011;11993;48.748;9.166;2022-12-31T06:00:31;1.27;;;0.60;;
23632;SDS011;11993;48.748;9.166;2022-12-31T06:02:57;0.63;;;0.63;;
23632;SDS011;11993;48.748;9.166;2022-12-31T06:05:22;1.58;;;0.63;;
23632;SDS011;11993;48.748;9.166;2022-12-31T06:07:48;1.85;;;0.80;;
23632;SDS011;11993;48.748;9.166;2022-12-31T06:10:14;3.92;;;0.70;;
23632;SDS011;11993;48.748;9.166;2022-12-31T06:12:39;1.10;;;0.60;;
23632;SDS011;11993;48.748;9.166;2022-12-31T06:15:05;0.50;;;0.50;;
23632;SDS011;11993;48.748;9.166;2022-12-31T06:17:31;1.05;;;0.70;;
23632;SDS011;11993;48.748;9.166;2022-12-31T06:19:57;0.77;;;0.60;;
23632;SDS011;11993;48.748;9.166;2022-12-31T06:22:23;2.95;;;0.82;;
23632;SDS011;11993;48.748;9.166;2022-12-31T06:24:49;1.08;;;0.60;;
23632;SDS011;11993;48.748;9.166;2022-12-31T06:27:14;0.88;;;0.60;;
23632;SDS011;11993;48.748;9.166;2022-12-31T06:29:40;0.70;;;0.60;;
23632;SDS011;11993;48.748;9.166;2022-12-31T06:32:06;2.50;;;0.63;;
23632;SDS011;11993;48.748;9.166;2022-12-31T06:34:31;2.97;;;0.70;;
23632;SDS011;11993;48.748;9.166;2022-12-31T06:36:57;1.08;;;0.52;;
23632;SDS011;11993;48.748;9.166;2022-12-31T06:39:23;1.38;;;0.90;;
23632;SDS011;11993;48.748;9.166;2022-12-31T06:41:49;0.82;;;0.80;;
23632;SDS011;11993;48.748;9.166;2022-12-31T06:44:14;1.25;;;0.50;;
23632;SDS011;11993;48.748;9.166;2022-12-31T06:46:40;0.80;;;0.60;;
23632;SDS011;11993;48.748;9.166;2022-12-31T06:49:06;1.02;;;0.60;;
23632;SDS011;11993;48.748;9.166;2022-12-31T06:51:31;2.10;;;0.82;;
23632;SDS011;11993;48.748;9.166;2022-12-31T06:53:57;0.68;;;0.68;;
23632;SDS011;11993;48.748;9.166;2022-12-31T06:56:23;2.15;;;0.65;;
23632;SDS011;11993;48.748;9.166;2022-12-31T06:58:52;1.25;;;0.63;;
23632;SDS011;11993;48.748;9.166;2022-12-31T07:04:36;1.27;;;0.75;;
23632;SDS011;11993;48.748;9.166;2022-12-31T07:06:59;0.75;;;0.57;;
23632;SDS011;11993;48.748;9.166;2022-12-31T07:09:37;0.70;;;0.68;;
23632;SDS011;11993;48.748;9.166;2022-12-31T07:15:32;3.70;;;0.90;;
23632;SDS011;11993;48.748;9.166;2022-12-31T07:21:12;0.60;;;0.60;;
23632;SDS011;11993;48.748;9.166;2022-12-31T07:23:39;1.83;;;0.75;;
23632;SDS011;11993;48.748;9.166;2022-12-31T07:28:56;1.80;;;0.70;;
23632;SDS011;11993;48.748;9.166;2022-12-31T07:31:46;0.98;;;0.60;;
23632;SDS011;11993;48.748;9.166;2022-12-31T07:34:36;0.68;;;0.60;;
23632;SDS011;11993;48.748;9.166;2022-12-31T07:40:05;0.90;;;0.63;;
23632;SDS011;11993;48.748;9.166;2022-12-31T07:42:54;1.58;;;0.70;;
23632;SDS011;11993;48.748;9.166;2022-12-31T07:45:45;4.28;;;1.00;;
23632;SDS011;11993;48.748;9.166;2022-12-31T07:48:26;2.08;;;0.90;;
23632;SDS011;11993;48.748;9.166;2022-12-31T07:50:53;1.25;;;0.70;;
23632;SDS011;11993;48.748;9.166;2022-12-31T07:53:20;1.42;;;0.70;;
23632;SDS011;11993;48.748;9.166;2022-12-31T07:55:52;0.85;;;0.60;;
23632;SDS011;11993;48.748;9.166;2022-12-31T08:01:29;3.00;;;0.70;;
23632;SDS011;11993;48.748;9.166;2022-12-31T08:04:17;0.93;;;0.70;;
23632;SDS011;11993;48.748;9.166;2022-12-31T08:10:02;1.20;;;0.60;;
23632;SDS011;11993;48.748;9.166;2022-12-31T08:12:35;1.17;;;0.73;;
23632;SDS011;11993;48.748;9.166;2022-12-31T08:15:10;2.83;;;0.82;;
23632;SDS011;11993;48.748;9.166;2022-12-31T08:17:43;3.40;;;0.80;;
23632;SDS011;11993;48.748;9.166;2022-12-31T08:20:16;2.05;;;0.90;;
23632;SDS011;11993;48.748;9.166;2022-12-31T08:25:34;1.33;;;0.55;;
23632;SDS011;11993;48.748;9.166;2022-12-31T08:34:11;1.00;;;0.70;;
23632;SDS011;11993;48.748;9.166;2022-12-31T08:42:21;1.58;;;0.60;;
23632;SDS011;11993;48.748;9.166;2022-12-31T08:45:01;1.23;;;0.70;;
23632;SDS011;11993;48.748;9.166;2022-12-31T08:50:30;0.73;;;0.60;;
23632;SDS011;11993;48.748;9.166;2022-12-31T08:52:56;0.60;;;0.60;;
23632;SDS011;11993;48.748;9.166;2022-12-31T08:55:22;1.33;;;0.70;;
23632;SDS011;11993;48.748;9.166;2022-12-31T09:00:32;1.00;;;0.60;;
23632;SDS011;11993;48.748;9.166;2022-12-31T09:14:20;2.40;;;0.95;;
23632;SDS011;11993;48.748;9.166;2022-12-31T09:20:04;2.85;;;0.63;;
23632;SDS011;11993;48.748;9.166;2022-12-31T09:22:30;3.33;;;1.00;;
23632;SDS011;11993;48.748;9.166;2022-12-31T09:24:56;1.95;;;0.80;;
23632;SDS011;11993;48.748;9.166;2022-12-31T09:32:38;1.25;;;0.82;;
23632;SDS011;11993;48.748;9.166;2022-12-31T09:35:11;1.40;;;0.60;;
23632;SDS011;11993;48.748;9.166;2022-12-31T09:37:45;2.05;;;0.52;;
23632;SDS011;11993;48.748;9.166;2022-12-31T09:43:13;2.03;;;0.85;;
23632;SDS011;11993;48.748;9.166;2022-12-31T09:51:52;1.25;;;0.80;;
23632;SDS011;11993;48.748;9.166;2022-12-31T09:59:56;3.25;;;0.77;;
23632;SDS011;11993;48.748;9.166;2022-12-31T10:11:13;2.17;;;0.65;;
23632;SDS011;11993;48.748;9.166;2022-12-31T10:13:52;2.47;;;0.77;;
23632;SDS011;11993;48.748;9.166;2022-12-31T10:16:44;8.10;;;3.13;;
23632;SDS011;11993;48.748;9.166;2022-12-31T10:27:31;1.70;;;0.70;;
23632;SDS011;11993;48.748;9.166;2022-12-31T10:30:18;0.50;;;0.50;;
23632;SDS011;11993;48.748;9.166;2022-12-31T10:35:42;1.95;;;0.70;;
23632;SDS011;11993;48.748;9.166;2022-12-31T10:38:22;3.20;;;0.60;;
23632;SDS011;11993;48.748;9.166;2022-12-31T10:46:57;0.55;;;0.50;;
23632;SDS011;11993;48.748;9.166;2022-12-31T10:49:43;0.75;;;0.68;;
23632;SDS011;11993;48.748;9.166;2022-12-31T10:55:41;1.13;;;0.75;;
23632;SDS011;11993;48.748;9.166;2022-12-31T11:12:34;1.85;;;0.60;;
23632;SDS011;11993;48.748;9.166;2022-12-31T11:23:34;1.33;;;0.70;;
23632;SDS011;11993;48.748;9.166;2022-12-31T11:26:19;0.70;;;0.68;;
23632;SDS011;11993;48.748;9.166;2022-12-31T11:31:35;1.95;;;0.70;;
23632;SDS011;11993;48.748;9.166;2022-12-31T11:42:25;1.38;;;0.60;;
23632;SDS011;11993;48.748;9.166;2022-12-31T11:45:30;1.42;;;0.70;;
23632;SDS011;11993;48.748;9.166;2022-12-31T11:48:03;0.75;;;0.50;;
23632;SDS011;11993;48.748;9.166;2022-12-31T11:54:24;1.10;;;0.60;;
23632;SDS011;11993;48.748;9.166;2022-12-31T11:56:32;0.73;;;0.50;;
23632;SDS011;11993;48.748;9.166;2022-12-31T11:59:07;0.98;;;0.50;;
23632;SDS011;11993;48.748;9.166;2022-12-31T12:04:19;3.08;;;0.68;;
23632;SDS011;11993;48.748;9.166;2022-12-31T12:06:45;2.78;;;0.70;;
23632;SDS011;11993;48.748;9.166;2022-12-31T12:09:15;1.20;;;0.60;;
23632;SDS011;11993;48.748;9.166;2022-12-31T12:11:59;1.58;;;0.75;;
23632;SDS011;11993;48.748;9.166;2022-12-31T12:14:33;3.15;;;0.60;;
23632;SDS011;11993;48.748;9.166;2022-12-31T12:17:02;1.90;;;0.82;;
23632;SDS011;11993;48.748;9.166;2022-12-31T12:19:31;1.85;;;1.00;;
23632;SDS011;11993;48.748;9.166;2022-12-31T12:22:07;2.40;;;0.82;;
23632;SDS011;11993;48.748;9.166;2022-12-31T12:24:37;1.15;;;0.65;;
23632;SDS011;11993;48.748;9.166;2022-12-31T12:27:03;1.40;;;0.70;;
23632;SDS011;11993;48.748;9.166;2022-12-31T12:29:31;2.67;;;0.80;;
23632;SDS011;11993;48.748;9.166;2022-12-31T12:32:01;2.75;;;0.80;;
23632;SDS011;11993;48.748;9.166;2022-12-31T12:34:38;1.23;;;0.70;;
23632;SDS011;11993;48.748;9.166;2022-12-31T12:39:59;1.13;;;0.60;;
23632;SDS011;11993;48.748;9.166;2022-12-31T12:42:28;2.10;;;0.80;;
23632;SDS011;11993;48.748;9.166;2022-12-31T12:45:01;0.60;;;0.50;;
23632;SDS011;11993;48.748;9.166;2022-12-31T12:47:29;0.73;;;0.57;;
23632;SDS011;11993;48.748;9.166;2022-12-31T12:49:55;2.60;;;0.70;;
23632;SDS011;11993;48.748;9.166;2022-12-31T12:52:25;0.90;;;0.50;;
23632;SDS011;11993;48.748;9.166;2022-12-31T12:55:15;0.70;;;0.50;;
23632;SDS011;11993;48.748;9.166;2022-12-31T13:01:02;0.50;;;0.40;;
23632;SDS011;11993;48.748;9.166;2022-12-31T13:15:04;1.20;;;0.93;;
23632;SDS011;11993;48.748;9.166;2022-12-31T13:20:57;3.63;;;0.47;;
23632;SDS011;11993;48.748;9.166;2022-12-31T13:28:58;0.90;;;0.70;;
23632;SDS011;11993;48.748;9.166;2022-12-31T13:31:28;0.85;;;0.60;;
23632;SDS011;11993;48.748;9.166;2022-12-31T13:33:58;0.57;;;0.50;;
23632;SDS011;11993;48.748;9.166;2022-12-31T13:36:29;0.90;;;0.68;;
23632;SDS011;11993;48.748;9.166;2022-12-31T13:39:03;4.68;;;0.45;;
23632;SDS011;11993;48.748;9.166;2022-12-31T13:49:32;0.80;;;0.60;;
23632;SDS011;11993;48.748;9.166;2022-12-31T13:52:12;0.88;;;0.68;;
23632;SDS011;11993;48.748;9.166;2022-12-31T13:54:55;1.38;;;0.73;;
23632;SDS011;11993;48.748;9.166;2022-12-31T13:57:44;0.95;;;0.80;;
23632;SDS011;11993;48.748;9.166;2022-12-31T14:00:19;0.82;;;0.70;;
23632;SDS011;11993;48.748;9.166;2022-12-31T14:05:57;1.75;;;1.08;;
23632;SDS011;11993;48.748;9.166;2022-12-31T14:08:29;1.38;;;0.70;;
23632;SDS011;11993;48.748;9.166;2022-12-31T14:21:44;1.50;;;0.60;;
23632;SDS011;11993;48.748;9.166;2022-12-31T14:24:24;3.78;;;0.90;;
23632;SDS011;11993;48.748;9.166;2022-12-31T14:27:06;1.48;;;0.80;;
23632;SDS011;11993;48.748;9.166;2022-12-31T14:29:43;3.10;;;0.93;;
23632;SDS011;11993;48.748;9.166;2022-12-31T14:32:26;2.53;;;0.70;;
23632;SDS011;11993;48.748;9.166;2022-12-31T14:51:28;0.70;;;0.70;;
23632;SDS011;11993;48.748;9.166;2022-12-31T14:53:55;2.13;;;1.00;;
23632;SDS011;11993;48.748;9.166;2022-12-31T14:59:03;2.38;;;0.90;;
23632;SDS011;11993;48.748;9.166;2022-12-31T15:01:47;2.35;;;0.73;;
23632;SDS011;11993;48.748;9.166;2022-12-31T15:04:13;4.07;;;2.22;;
23632;SDS011;11993;48.748;9.166;2022-12-31T15:06:51;7.88;;;3.15;;
23632;SDS011;11993;48.748;9.166;2022-12-31T15:15:25;3.83;;;1.00;;
23632;SDS011;11993;48.748;9.166;2022-12-31T15:24:18;2.85;;;1.02;;
23632;SDS011;11993;48.748;9.166;2022-12-31T15:26:59;0.80;;;0.80;;
23632;SDS011;11993;48.748;9.166;2022-12-31T15:29:43;1.05;;;0.73;;
23632;SDS011;11993;48.748;9.166;2022-12-31T15:32:16;1.42;;;1.02;;
23632;SDS011;11993;48.748;9.166;2022-12-31T15:34:44;1.50;;;0.90;;
23632;SDS011;11993;48.748;9.166;2022-12-31T15:37:26;1.70;;;1.27;;
23632;SDS011;11993;48.748;9.166;2022-12-31T15:45:35;1.63;;;0.88;;
23632;SDS011;11993;48.748;9.166;2022-12-31T15:48:05;2.53;;;0.80;;
23632;SDS011;11993;48.748;9.166;2022-12-31T15:50:40;2.00;;;1.20;;
23632;SDS011;11993;48.748;9.166;2022-12-31T15:53:09;2.70;;;1.17;;
23632;SDS011;11993;48.748;9.166;2022-12-31T15:55:50;1.45;;;1.00;;
23632;SDS011;11993;48.748;9.166;2022-12-31T15:58:18;1.02;;;0.93;;
23632;SDS011;11993;48.748;9.166;2022-12-31T16:03:34;2.28;;;1.05;;
23632;SDS011;11993;48.748;9.166;2022-12-31T16:06:01;1.98;;;1.10;;
23632;SDS011;11993;48.748;9.166;2022-12-31T16:08:32;3.28;;;0.90;;
23632;SDS011;11993;48.748;9.166;2022-12-31T16:10:59;1.67;;;1.15;;
23632;SDS011;11993;48.748;9.166;2022-12-31T16:13:27;2.15;;;0.90;;
23632;SDS011;11993;48.748;9.166;2022-12-31T16:16:04;3.10;;;1.63;;
23632;SDS011;11993;48.748;9.166;2022-12-31T16:18:39;2.65;;;1.80;;
23632;SDS011;11993;48.748;9.166;2022-12-31T16:23:51;4.40;;;1.50;;
23632;SDS011;11993;48.748;9.166;2022-12-31T16:26:19;3.47;;;1.80;;
23632;SDS011;11993;48.748;9.166;2022-12-31T16:28:48;4.95;;;2.17;;
23632;SDS011;11993;48.748;9.166;2022-12-31T16:31:15;2.38;;;1.15;;
23632;SDS011;11993;48.748;9.166;2022-12-31T16:33:43;1.90;;;1.15;;
23632;SDS011;11993;48.748;9.166;2022-12-31T16:36:17;3.75;;;1.70;;
23632;SDS011;11993;48.748;9.166;2022-12-31T16:38:47;8.70;;;3.75;;
23632;SDS011;11993;48.748;9.166;2022-12-31T16:41:17;5.22;;;3.08;;
23632;SDS011;11993;48.748;9.166;2022-12-31T16:43:45;3.63;;;2.30;;
23632;SDS011;11993;48.748;9.166;2022-12-31T16:48:52;2.95;;;2.10;;
23632;SDS011;11993;48.748;9.166;2022-12-31T16:51:31;4.63;;;3.05;;
23632;SDS011;11993;48.748;9.166;2022-12-31T16:53:59;6.35;;;3.20;;
23632;SDS011;11993;48.748;9.166;2022-12-31T16:56:36;6.10;;;3.00;;
23632;SDS011;11993;48.748;9.166;2022-12-31T16:59:11;4.78;;;2.53;;
23632;SDS011;11993;48.748;9.166;2022-12-31T17:01:50;7.00;;;3.80;;
23632;SDS011;11993;48.748;9.166;2022-12-31T17:04:19;5.45;;;3.63;;
23632;SDS011;11993;48.748;9.166;2022-12-31T17:06:46;6.72;;;3.47;;
23632;SDS011;11993;48.748;9.166;2022-12-31T17:09:16;5.95;;;3.78;;
23632;SDS011;11993;48.748;9.166;2022-12-31T17:11:50;6.47;;;3.50;;
23632;SDS011;11993;48.748;9.166;2022-12-31T17:14:17;6.10;;;3.90;;
23632;SDS011;11993;48.748;9.166;2022-12-31T17:19:45;4.93;;;3.35;;
23632;SDS011;11993;48.748;9.166;2022-12-31T17:22:21;7.38;;;4.00;;
23632;SDS011;11993;48.748;9.166;2022-12-31T17:24:48;8.38;;;5.07;;
23632;SDS011;11993;48.748;9.166;2022-12-31T17:27:14;8.57;;;6.32;;
23632;SDS011;11993;48.748;9.166;2022-12-31T17:29:40;6.68;;;3.80;;
23632;SDS011;11993;48.748;9.166;2022-12-31T17:32:24;7.20;;;3.70;;
23632;SDS011;11993;48.748;9.166;2022-12-31T17:34:59;6.93;;;3.80;;
23632;SDS011;11993;48.748;9.166;2022-12-31T17:37:26;6.65;;;4.13;;
23632;SDS011;11993;48.748;9.166;2022-12-31T17:39:53;9.10;;;4.78;;
23632;SDS011;11993;48.748;9.166;2022-12-31T17:44:58;9.50;;;6.00;;
23632;SDS011;11993;48.748;9.166;2022-12-31T17:47:36;8.75;;;5.65;;
23632;SDS011;11993;48.748;9.166;2022-12-31T17:50:05;9.05;;;4.90;;
23632;SDS011;11993;48.748;9.166;2022-12-31T17:52:40;5.32;;;3.55;;
23632;SDS011;11993;48.748;9.166;2022-12-31T17:55:06;6.75;;;4.28;;
23632;SDS011;11993;48.748;9.166;2022-12-31T17:57:31;5.18;;;3.85;;
23632;SDS011;11993;48.748;9.166;2022-12-31T17:59:57;4.60;;;3.20;;
23632;SDS011;11993;48.748;9.166;2022-12-31T18:02:23;6.03;;;3.17;;
23632;SDS011;11993;48.748;9.166;2022-12-31T18:04:49;3.90;;;3.00;;
23632;SDS011;11993;48.748;9.166;2022-12-31T18:07:14;6.72;;;3.30;;
23632;SDS011;11993;48.748;9.166;2022-12-31T18:09:40;6.50;;;3.95;;
23632;SDS011;11993;48.748;9.166;2022-12-31T18:12:06;7.22;;;4.05;;
23632;SDS011;11993;48.748;9.166;2022-12-31T18:14:32;9.60;;;5.70;;
23632;SDS011;11993;48.748;9.166;2022-12-31T18:16:58;7.13;;;4.43;;
23632;SDS011;11993;48.748;9.166;2022-12-31T18:19:24;3.92;;;3.17;;
23632;SDS011;11993;48.748;9.166;2022-12-31T18:21:50;6.32;;;3.25;;
23632;SDS011;11993;48.748;9.166;2022-12-31T18:24:15;3.78;;;2.45;;
23632;SDS011;11993;48.748;9.166;2022-12-31T18:26:42;4.35;;;2.65;;
23632;SDS011;11993;48.748;9.166;2022-12-31T18:29:15;7.43;;;3.10;;
23632;SDS011;11993;48.748;9.166;2022-12-31T18:31:43;4.22;;;2.95;;
23632;SDS011;11993;48.748;9.166;2022-12-31T18:34:11;6.07;;;4.25;;
23632;SDS011;11993;48.748;9.166;2022-12-31T18:36:38;8.70;;;4.80;;
23632;SDS011;11993;48.748;9.166;2022-12-31T18:39:04;7.03;;;3.47;;
23632;SDS011;11993;48.748;9.166;2022-12-31T18:41:33;4.35;;;3.03;;
23632;SDS011;11993;48.748;9.166;2022-12-31T18:44:02;3.58;;;2.67;;
23632;SDS011;11993;48.748;9.166;2022-12-31T18:46:28;8.35;;;2.70;;
23632;SDS011;11993;48.748;9.166;2022-12-31T18:48:54;6.45;;;3.35;;
23632;SDS011;11993;48.748;9.166;2022-12-31T18:51:20;7.28;;;4.43;;
23632;SDS011;11993;48.748;9.166;2022-12-31T18:53:47;14.25;;;5.68;;
23632;SDS011;11993;48.748;9.166;2022-12-31T18:56:17;6.22;;;4.68;;
23632;SDS011;11993;48.748;9.166;2022-12-31T18:58:44;7.53;;;3.28;;
23632;SDS011;11993;48.748;9.166;2022-12-31T19:01:26;4.75;;;3.13;;
23632;SDS011;11993;48.748;9.166;2022-12-31T19:03:53;4.50;;;2.90;;
23632;SDS011;11993;48.748;9.166;2022-12-31T19:06:19;4.45;;;2.65;;
23632;SDS011;11993;48.748;9.166;2022-12-31T19:08:45;7.97;;;3.00;;
23632;SDS011;11993;48.748;9.166;2022-12-31T19:11:11;3.25;;;2.55;;
23632;SDS011;11993;48.748;9.166;2022-12-31T19:13:38;6.03;;;2.67;;
23632;SDS011;11993;48.748;9.166;2022-12-31T19:16:04;3.85;;;2.53;;
23632;SDS011;11993;48.748;9.166;2022-12-31T19:18:31;7.63;;;3.72;;
23632;SDS011;11993;48.748;9.166;2022-12-31T19:20:57;5.07;;;3.42;;
23632;SDS011;11993;48.748;9.166;2022-12-31T19:23:23;6.22;;;2.85;;
23632;SDS011;11993;48.748;9.166;2022-12-31T19:25:48;4.88;;;2.90;;
23632;SDS011;11993;48.748;9.166;2022-12-31T19:28:21;3.60;;;2.92;;
23632;SDS011;11993;48.748;9.166;2022-12-31T19:30:50;6.75;;;3.03;;
23632;SDS011;11993;48.748;9.166;2022-12-31T19:33:17;5.65;;;3.00;;
23632;SDS011;11993;48.748;9.166;2022-12-31T19:35:43;4.90;;;3.00;;
23632;SDS011;11993;48.748;9.166;2022-12-31T19:40:45;6.05;;;3.67;;
23632;SDS011;11993;48.748;9.166;2022-12-31T19:43:12;5.32;;;3.35;;